Time,TemperatureF,DewpointF,PressureIn,WindDirection,WindDirectionDegrees,WindSpeedMPH,WindSpeedGustMPH,Humidity,HourlyPrecipIn,Conditions,Clouds,dailyrainin,SoftwareType,DateUTC
2013-05-06 00:00:00,56.9,49.8,29.78,West,277,0.0,0.0,77,0.00,,SKC,0.00,VWS V14.01,2013-05-06 07:00:00,
2013-05-06 00:10:00,56.9,50.1,29.78,West,277,0.0,0.0,78,0.00,,SKC,0.00,VWS V14.01,2013-05-06 07:10:00,
2013-05-06 00:15:00,57.0,49.9,29.78,West,277,0.0,1.0,77,0.00,,SKC,0.00,VWS V14.01,2013-05-06 07:15:00,
2013-05-06 00:25:00,57.0,50.2,29.79,West,277,0.0,0.0,78,0.00,,SKC,0.00,VWS V14.01,2013-05-06 07:25:00,
2013-05-06 00:30:00,57.1,50.3,29.79,West,277,0.0,0.0,78,0.00,,SKC,0.00,VWS V14.01,2013-05-06 07:30:00,
2013-05-06 00:35:00,57.1,50.3,29.79,West,277,0.0,0.0,78,0.00,,SKC,0.00,VWS V14.01,2013-05-06 07:35:00,
2013-05-06 00:40:00,57.1,50.3,29.79,West,277,0.0,0.0,78,0.00,,SKC,0.00,VWS V14.01,2013-05-06 07:40:00,
2013-05-06 00:45:00,57.1,50.3,29.79,West,277,0.0,0.0,78,0.00,,SKC,0.00,VWS V14.01,2013-05-06 07:45:00,
2013-05-06 00:50:00,57.1,50.3,29.80,West,277,0.0,0.0,78,0.00,,SKC,0.00,VWS V14.01,2013-05-06 07:50:00,
2013-05-06 00:55:00,57.1,50.3,29.79,West,277,0.0,0.0,78,0.00,,SKC,0.00,VWS V14.01,2013-05-06 07:55:00,
2013-05-06 01:00:00,57.2,50.8,29.80,West,277,0.0,0.0,79,0.00,,SKC,0.00,VWS V14.01,2013-05-06 08:00:00,
2013-05-06 01:05:00,57.2,50.4,29.80,West,277,0.0,0.0,78,0.00,,SKC,0.00,VWS V14.01,2013-05-06 08:05:00,
2013-05-06 01:10:00,57.1,50.3,29.80,West,277,0.0,0.0,78,0.00,,SKC,0.00,VWS V14.01,2013-05-06 08:10:00,
2013-05-06 01:15:00,56.9,50.1,29.80,West,277,0.0,0.0,78,0.00,,SKC,0.00,VWS V14.01,2013-05-06 08:15:00,
2013-05-06 01:20:00,56.8,50.4,29.80,West,277,0.0,0.0,79,0.00,,SKC,0.00,VWS V14.01,2013-05-06 08:20:00,
2013-05-06 01:25:00,56.6,50.2,29.80,West,277,0.0,0.0,79,0.00,,SKC,0.00,VWS V14.01,2013-05-06 08:25:00,
2013-05-06 01:30:00,56.4,50.3,29.80,West,277,0.0,0.0,80,0.00,,SKC,0.00,VWS V14.01,2013-05-06 08:30:00,
2013-05-06 01:35:00,56.2,50.1,29.80,West,277,0.0,0.0,80,0.00,,SKC,0.00,VWS V14.01,2013-05-06 08:35:00,
2013-05-06 01:40:00,56.0,49.9,29.80,West,277,0.0,0.0,80,0.00,,SKC,0.00,VWS V14.01,2013-05-06 08:40:00,
2013-05-06 01:45:00,55.8,50.1,29.80,West,277,0.0,0.0,81,0.00,,SKC,0.00,VWS V14.01,2013-05-06 08:45:00,
2013-05-06 01:50:00,55.5,49.8,29.81,West,277,0.0,0.0,81,0.00,,SKC,0.00,VWS V14.01,2013-05-06 08:50:00,
2013-05-06 01:55:00,55.2,49.5,29.80,West,277,0.0,0.0,81,0.00,,SKC,0.00,VWS V14.01,2013-05-06 08:55:00,
2013-05-06 02:00:00,54.9,49.2,29.80,West,277,0.0,0.0,81,0.00,,SKC,0.00,VWS V14.01,2013-05-06 09:00:00,
2013-05-06 02:05:00,54.6,49.2,29.81,West,277,0.0,0.0,82,0.00,,SKC,0.00,VWS V14.01,2013-05-06 09:05:00,
2013-05-06 02:10:00,54.4,49.0,29.81,West,277,0.0,0.0,82,0.00,,SKC,0.00,VWS V14.01,2013-05-06 09:10:00,
2013-05-06 02:15:00,54.2,48.8,29.80,West,277,0.0,0.0,82,0.00,,SKC,0.00,VWS V14.01,2013-05-06 09:15:00,
2013-05-06 02:20:00,53.9,48.9,29.80,West,277,0.0,0.0,83,0.00,,SKC,0.00,VWS V14.01,2013-05-06 09:20:00,
2013-05-06 02:25:00,53.7,49.0,29.81,West,277,0.0,0.0,84,0.00,,SKC,0.00,VWS V14.01,2013-05-06 09:25:00,
2013-05-06 02:30:00,53.7,49.0,29.80,West,277,0.0,0.0,84,0.00,,SKC,0.00,VWS V14.01,2013-05-06 09:30:00,
2013-05-06 02:35:00,53.6,48.9,29.80,West,277,0.0,0.0,84,0.00,,SKC,0.00,VWS V14.01,2013-05-06 09:35:00,
2013-05-06 02:40:00,53.6,48.9,29.80,West,277,0.0,0.0,84,0.00,,SKC,0.00,VWS V14.01,2013-05-06 09:40:00,
2013-05-06 02:45:00,53.5,48.8,29.80,West,277,0.0,0.0,84,0.00,,SKC,0.00,VWS V14.01,2013-05-06 09:45:00,
2013-05-06 02:50:00,53.5,48.8,29.80,West,277,0.0,0.0,84,0.00,,SKC,0.00,VWS V14.01,2013-05-06 09:50:00,
2013-05-06 02:55:00,53.7,49.3,29.80,West,277,1.0,1.0,85,0.00,,SKC,0.00,VWS V14.01,2013-05-06 09:55:00,
2013-05-06 03:00:00,54.1,49.7,29.80,West,277,0.0,2.0,85,0.00,,SKC,0.00,VWS V14.01,2013-05-06 10:00:00,
2013-05-06 03:05:00,54.4,50.0,29.80,West,277,0.0,0.0,85,0.00,,SKC,0.00,VWS V14.01,2013-05-06 10:05:00,
2013-05-06 03:10:00,54.6,50.2,29.80,West,277,0.0,0.0,85,0.00,,SKC,0.00,VWS V14.01,2013-05-06 10:10:00,
2013-05-06 03:15:00,54.8,50.4,29.80,West,277,0.0,0.0,85,0.00,,SKC,0.00,VWS V14.01,2013-05-06 10:15:00,
2013-05-06 03:20:00,54.9,50.5,29.80,West,277,0.0,0.0,85,0.00,,SKC,0.00,VWS V14.01,2013-05-06 10:20:00,
2013-05-06 03:25:00,55.0,50.6,29.80,West,277,0.0,0.0,85,0.00,,SKC,0.00,VWS V14.01,2013-05-06 10:25:00,
2013-05-06 03:30:00,55.0,50.6,29.80,West,277,0.0,0.0,85,0.00,,SKC,0.00,VWS V14.01,2013-05-06 10:30:00,
2013-05-06 03:35:00,55.1,50.7,29.80,West,277,0.0,0.0,85,0.00,,SKC,0.00,VWS V14.01,2013-05-06 10:35:00,
2013-05-06 03:40:00,55.2,50.8,29.80,West,277,0.0,0.0,85,0.00,,SKC,0.00,VWS V14.01,2013-05-06 10:40:00,
2013-05-06 03:45:00,55.4,51.0,29.79,West,277,0.0,0.0,85,0.00,,SKC,0.00,VWS V14.01,2013-05-06 10:45:00,
2013-05-06 03:50:00,55.5,50.8,29.80,West,277,0.0,0.0,84,0.00,,SKC,0.00,VWS V14.01,2013-05-06 10:50:00,
2013-05-06 03:55:00,55.5,51.1,29.80,West,277,0.0,0.0,85,0.00,,SKC,0.00,VWS V14.01,2013-05-06 10:55:00,
2013-05-06 04:00:00,55.5,50.8,29.80,West,277,0.0,0.0,84,0.00,,SKC,0.00,VWS V14.01,2013-05-06 11:00:00,
2013-05-06 04:05:00,55.5,50.8,29.80,West,277,0.0,0.0,84,0.00,,SKC,0.00,VWS V14.01,2013-05-06 11:05:00,
2013-05-06 04:10:00,55.5,50.8,29.79,West,277,0.0,0.0,84,0.00,,SKC,0.00,VWS V14.01,2013-05-06 11:10:00,
2013-05-06 04:15:00,55.4,50.7,29.79,West,277,0.0,0.0,84,0.00,,SKC,0.00,VWS V14.01,2013-05-06 11:15:00,
2013-05-06 04:20:00,55.3,50.6,29.79,West,277,0.0,0.0,84,0.00,,SKC,0.00,VWS V14.01,2013-05-06 11:20:00,
2013-05-06 04:25:00,55.1,50.4,29.79,West,277,0.0,0.0,84,0.00,,SKC,0.00,VWS V14.01,2013-05-06 11:25:00,
2013-05-06 04:30:00,55.0,50.6,29.80,West,277,0.0,0.0,85,0.00,,SKC,0.00,VWS V14.01,2013-05-06 11:30:00,
2013-05-06 04:35:00,54.9,50.5,29.80,West,277,0.0,0.0,85,0.00,,SKC,0.00,VWS V14.01,2013-05-06 11:35:00,
2013-05-06 04:40:00,54.9,50.5,29.79,West,277,0.0,0.0,85,0.00,,SKC,0.00,VWS V14.01,2013-05-06 11:40:00,
2013-05-06 04:45:00,54.8,50.4,29.79,West,277,0.0,0.0,85,0.00,,SKC,0.00,VWS V14.01,2013-05-06 11:45:00,
2013-05-06 04:50:00,54.8,50.4,29.79,West,277,0.0,0.0,85,0.00,,SKC,0.00,VWS V14.01,2013-05-06 11:50:00,
2013-05-06 04:55:00,54.7,50.3,29.80,West,277,0.0,0.0,85,0.00,,SKC,0.00,VWS V14.01,2013-05-06 11:55:00,
2013-05-06 05:00:00,54.7,50.3,29.79,West,277,0.0,0.0,85,0.00,,SKC,0.00,VWS V14.01,2013-05-06 12:00:00,
2013-05-06 05:05:00,54.7,50.3,29.80,West,277,0.0,0.0,85,0.00,,SKC,0.00,VWS V14.01,2013-05-06 12:05:00,
2013-05-06 05:10:00,54.7,50.3,29.80,West,277,0.0,0.0,85,0.00,,SKC,0.00,VWS V14.01,2013-05-06 12:10:00,
2013-05-06 05:15:00,54.8,50.4,29.80,West,277,0.0,0.0,85,0.00,,SKC,0.00,VWS V14.01,2013-05-06 12:15:00,
2013-05-06 05:20:00,54.8,50.4,29.80,West,277,0.0,0.0,85,0.00,,SKC,0.00,VWS V14.01,2013-05-06 12:20:00,
2013-05-06 05:25:00,54.9,50.5,29.80,West,277,0.0,0.0,85,0.00,,SKC,0.00,VWS V14.01,2013-05-06 12:25:00,
2013-05-06 05:30:00,54.9,50.5,29.80,West,277,0.0,0.0,85,0.00,,SKC,0.00,VWS V14.01,2013-05-06 12:30:00,
2013-05-06 05:35:00,55.0,50.6,29.80,West,277,0.0,0.0,85,0.00,,SKC,0.00,VWS V14.01,2013-05-06 12:35:00,
2013-05-06 05:40:00,55.1,50.7,29.80,West,277,0.0,0.0,85,0.00,,SKC,0.00,VWS V14.01,2013-05-06 12:40:00,
2013-05-06 05:45:00,55.1,50.7,29.80,West,277,0.0,0.0,85,0.00,,SKC,0.00,VWS V14.01,2013-05-06 12:45:00,
2013-05-06 05:50:00,55.2,50.8,29.80,West,277,0.0,0.0,85,0.00,,SKC,0.00,VWS V14.01,2013-05-06 12:50:00,
2013-05-06 05:55:00,55.2,50.5,29.80,West,277,0.0,0.0,84,0.00,,SKC,0.00,VWS V14.01,2013-05-06 12:55:00,
2013-05-06 06:00:00,55.1,50.4,29.80,West,277,0.0,0.0,84,0.00,,SKC,0.00,VWS V14.01,2013-05-06 13:00:00,
2013-05-06 06:05:00,55.2,50.8,29.80,West,277,0.0,0.0,85,0.00,,SKC,0.00,VWS V14.01,2013-05-06 13:05:00,
2013-05-06 06:10:00,55.2,50.5,29.81,West,277,0.0,0.0,84,0.00,,SKC,0.00,VWS V14.01,2013-05-06 13:10:00,
2013-05-06 06:15:00,55.2,50.5,29.81,West,277,0.0,0.0,84,0.00,,SKC,0.00,VWS V14.01,2013-05-06 13:15:00,
2013-05-06 06:20:00,55.1,50.4,29.81,West,277,0.0,0.0,84,0.00,,SKC,0.00,VWS V14.01,2013-05-06 13:20:00,
2013-05-06 06:25:00,55.0,50.3,29.81,West,277,0.0,0.0,84,0.00,,SKC,0.00,VWS V14.01,2013-05-06 13:25:00,
2013-05-06 06:30:00,54.9,50.5,29.81,West,277,0.0,0.0,85,0.00,,SKC,0.00,VWS V14.01,2013-05-06 13:30:00,
2013-05-06 06:35:00,54.8,50.4,29.81,West,277,0.0,0.0,85,0.00,,SKC,0.00,VWS V14.01,2013-05-06 13:35:00,
2013-05-06 06:40:00,54.7,50.3,29.81,West,277,0.0,0.0,85,0.00,,SKC,0.00,VWS V14.01,2013-05-06 13:40:00,
2013-05-06 06:45:00,54.6,50.2,29.82,West,277,0.0,0.0,85,0.00,,SKC,0.00,VWS V14.01,2013-05-06 13:45:00,
2013-05-06 06:50:00,54.7,50.3,29.82,West,277,0.0,0.0,85,0.00,,SKC,0.00,VWS V14.01,2013-05-06 13:50:00,
2013-05-06 06:55:00,54.8,50.4,29.82,West,277,0.0,0.0,85,0.00,,SKC,0.00,VWS V14.01,2013-05-06 13:55:00,
2013-05-06 07:00:00,54.9,50.5,29.82,West,277,0.0,0.0,85,0.00,,SKC,0.00,VWS V14.01,2013-05-06 14:00:00,
2013-05-06 07:05:00,54.9,50.5,29.82,West,277,0.0,0.0,85,0.00,,SKC,0.00,VWS V14.01,2013-05-06 14:05:00,
2013-05-06 07:10:00,55.1,50.7,29.82,West,277,0.0,0.0,85,0.00,,SKC,0.00,VWS V14.01,2013-05-06 14:10:00,
2013-05-06 07:15:00,55.3,50.9,29.82,West,277,0.0,0.0,85,0.00,,SKC,0.00,VWS V14.01,2013-05-06 14:15:00,
2013-05-06 07:20:00,55.6,51.2,29.82,West,277,0.0,0.0,85,0.00,,SKC,0.00,VWS V14.01,2013-05-06 14:20:00,
2013-05-06 07:25:00,56.3,50.9,29.82,East,88,1.0,2.0,82,0.00,,SKC,0.00,VWS V14.01,2013-05-06 14:25:00,
2013-05-06 07:30:00,57.2,51.1,29.82,East,95,0.0,2.0,80,0.00,,SKC,0.00,VWS V14.01,2013-05-06 14:30:00,
2013-05-06 07:35:00,57.5,51.4,29.82,East,95,0.0,1.0,80,0.00,,SKC,0.00,VWS V14.01,2013-05-06 14:35:00,
2013-05-06 07:40:00,57.8,51.3,29.82,East,95,0.0,0.0,79,0.00,,SKC,0.00,VWS V14.01,2013-05-06 14:40:00,
2013-05-06 07:45:00,58.4,50.5,29.82,NNE,26,2.0,2.0,75,0.00,,SKC,0.00,VWS V14.01,2013-05-06 14:45:00,
2013-05-06 07:50:00,59.0,50.7,29.82,East,92,0.0,2.0,74,0.00,,SKC,0.00,VWS V14.01,2013-05-06 14:50:00,
2013-05-06 08:00:00,60.2,51.2,29.82,ESE,115,2.0,4.0,72,0.00,,SKC,0.00,VWS V14.01,2013-05-06 15:00:00,
2013-05-06 08:05:00,60.7,50.9,29.82,ESE,119,4.0,6.0,70,0.00,,SKC,0.00,VWS V14.01,2013-05-06 15:05:00,
2013-05-06 08:15:00,61.0,50.8,29.83,ENE,61,3.0,7.0,69,0.00,,SKC,0.00,VWS V14.01,2013-05-06 15:15:00,
2013-05-06 08:20:00,61.2,51.0,29.83,ESE,111,2.0,5.0,69,0.00,,SKC,0.00,VWS V14.01,2013-05-06 15:20:00,
2013-05-06 08:25:00,61.4,51.2,29.83,ESE,122,1.0,5.0,69,0.00,,SKC,0.00,VWS V14.01,2013-05-06 15:25:00,
2013-05-06 08:30:00,61.5,51.2,29.83,NE,51,1.0,1.0,69,0.00,,SKC,0.00,VWS V14.01,2013-05-06 15:30:00,
2013-05-06 08:35:00,61.6,51.0,29.83,ESE,115,0.0,2.0,68,0.00,,SKC,0.00,VWS V14.01,2013-05-06 15:35:00,
2013-05-06 08:40:00,61.9,51.2,29.83,East,87,2.0,4.0,68,0.00,,SKC,0.00,VWS V14.01,2013-05-06 15:40:00,
2013-05-06 08:45:00,62.0,51.3,29.84,East,82,2.0,8.0,68,0.00,,SKC,0.00,VWS V14.01,2013-05-06 15:45:00,
2013-05-06 08:50:00,62.1,51.4,29.84,ESE,121,0.0,5.0,68,0.00,,SKC,0.00,VWS V14.01,2013-05-06 15:50:00,
2013-05-06 08:55:00,62.3,52.0,29.84,SE,130,3.0,6.0,69,0.00,,SKC,0.00,VWS V14.01,2013-05-06 15:55:00,
2013-05-06 09:00:00,62.7,52.0,29.84,ENE,67,1.0,4.0,68,0.00,,SKC,0.00,VWS V14.01,2013-05-06 16:00:00,
2013-05-06 09:10:00,63.1,52.0,29.83,East,83,3.0,4.0,67,0.00,,SKC,0.00,VWS V14.01,2013-05-06 16:10:00,
2013-05-06 09:15:00,63.4,51.9,29.84,East,96,2.0,4.0,66,0.00,,SKC,0.00,VWS V14.01,2013-05-06 16:15:00,
2013-05-06 09:20:00,63.8,52.2,29.84,ENE,68,0.0,4.0,66,0.00,,SKC,0.00,VWS V14.01,2013-05-06 16:20:00,
2013-05-06 09:25:00,64.4,52.4,29.84,ESE,120,2.0,5.0,65,0.00,,SKC,0.00,VWS V14.01,2013-05-06 16:25:00,
2013-05-06 09:30:00,64.9,52.5,29.83,ENE,59,0.0,5.0,64,0.00,,SKC,0.00,VWS V14.01,2013-05-06 16:30:00,
2013-05-06 09:35:00,65.3,52.8,29.83,North,360,3.0,5.0,64,0.00,,SKC,0.00,VWS V14.01,2013-05-06 16:35:00,
2013-05-06 09:40:00,66.3,52.9,29.83,East,80,0.0,4.0,62,0.00,,SKC,0.00,VWS V14.01,2013-05-06 16:40:00,
2013-05-06 09:45:00,67.4,53.0,29.83,North,11,2.0,5.0,60,0.00,,SKC,0.00,VWS V14.01,2013-05-06 16:45:00,
2013-05-06 09:50:00,66.9,51.7,29.84,ESE,109,1.0,6.0,58,0.00,,SKC,0.00,VWS V14.01,2013-05-06 16:50:00,
2013-05-06 09:55:00,65.9,51.6,29.84,ESE,107,2.0,7.0,60,0.00,,SKC,0.00,VWS V14.01,2013-05-06 16:55:00,
2013-05-06 10:05:00,66.9,51.7,29.84,ENE,69,0.0,6.0,58,0.00,,SKC,0.00,VWS V14.01,2013-05-06 17:05:00,
2013-05-06 10:10:00,68.1,51.3,29.84,SE,133,4.0,5.0,55,0.00,,SKC,0.00,VWS V14.01,2013-05-06 17:10:00,
2013-05-06 10:15:00,68.4,51.6,29.84,ENE,68,0.0,4.0,55,0.00,,SKC,0.00,VWS V14.01,2013-05-06 17:15:00,
2013-05-06 10:20:00,69.0,51.7,29.84,East,91,0.0,4.0,54,0.00,,SKC,0.00,VWS V14.01,2013-05-06 17:20:00,
2013-05-06 10:25:00,68.8,51.5,29.84,ENE,65,3.0,5.0,54,0.00,,SKC,0.00,VWS V14.01,2013-05-06 17:25:00,
2013-05-06 10:30:00,68.2,51.4,29.84,ESE,105,0.0,5.0,55,0.00,,SKC,0.00,VWS V14.01,2013-05-06 17:30:00,
2013-05-06 10:35:00,68.0,51.7,29.84,NNE,26,7.0,7.0,56,0.00,,SKC,0.00,VWS V14.01,2013-05-06 17:35:00,
2013-05-06 10:40:00,67.8,51.1,29.84,ENE,63,0.0,7.0,55,0.00,,SKC,0.00,VWS V14.01,2013-05-06 17:40:00,
2013-05-06 10:45:00,67.7,51.0,29.84,East,98,0.0,2.0,55,0.00,,SKC,0.00,VWS V14.01,2013-05-06 17:45:00,
2013-05-06 10:50:00,67.5,51.3,29.84,East,94,2.0,2.0,56,0.00,,SKC,0.00,VWS V14.01,2013-05-06 17:50:00,
2013-05-06 10:55:00,67.6,51.4,29.84,ENE,77,0.0,3.0,56,0.00,,SKC,0.00,VWS V14.01,2013-05-06 17:55:00,
2013-05-06 11:00:00,67.6,51.4,29.84,ENE,78,0.0,2.0,56,0.00,,SKC,0.00,VWS V14.01,2013-05-06 18:00:00,
2013-05-06 11:05:00,67.7,51.9,29.84,ENE,78,0.0,2.0,57,0.00,,SKC,0.00,VWS V14.01,2013-05-06 18:05:00,
2013-05-06 11:10:00,68.0,51.7,29.84,ENE,78,0.0,2.0,56,0.00,,SKC,0.00,VWS V14.01,2013-05-06 18:10:00,
2013-05-06 11:15:00,68.5,52.2,29.84,ENE,75,0.0,2.0,56,0.00,,SKC,0.00,VWS V14.01,2013-05-06 18:15:00,
2013-05-06 11:20:00,69.0,51.7,29.84,SE,135,0.0,6.0,54,0.00,,SKC,0.00,VWS V14.01,2013-05-06 18:20:00,
2013-05-06 11:25:00,70.0,51.6,29.84,ENE,65,0.0,5.0,52,0.00,,SKC,0.00,VWS V14.01,2013-05-06 18:25:00,
2013-05-06 11:30:00,69.9,51.5,29.84,SE,136,0.0,5.0,52,0.00,,SKC,0.00,VWS V14.01,2013-05-06 18:30:00,
2013-05-06 11:35:00,69.7,51.8,29.84,ENE,73,0.0,2.0,53,0.00,,SKC,0.00,VWS V14.01,2013-05-06 18:35:00,
2013-05-06 11:40:00,69.3,50.4,29.84,East,84,1.0,4.0,51,0.00,,SKC,0.00,VWS V14.01,2013-05-06 18:40:00,
2013-05-06 11:50:00,69.6,51.7,29.84,East,91,0.0,4.0,53,0.00,,SKC,0.00,VWS V14.01,2013-05-06 18:50:00,
2013-05-06 11:55:00,70.1,51.2,29.84,SE,136,0.0,6.0,51,0.00,,SKC,0.00,VWS V14.01,2013-05-06 18:55:00,
2013-05-06 12:00:00,69.8,50.9,29.84,SE,133,2.0,4.0,51,0.00,,SKC,0.00,VWS V14.01,2013-05-06 19:00:00,
2013-05-06 12:10:00,69.8,51.4,29.84,NNE,15,0.0,5.0,52,0.00,,SKC,0.00,VWS V14.01,2013-05-06 19:10:00,
2013-05-06 12:15:00,69.7,51.3,29.84,ENE,66,0.0,4.0,52,0.00,,SKC,0.00,VWS V14.01,2013-05-06 19:15:00,
2013-05-06 12:20:00,69.7,51.8,29.84,ENE,65,0.0,0.0,53,0.00,,SKC,0.00,VWS V14.01,2013-05-06 19:20:00,
2013-05-06 12:30:00,68.9,50.6,29.84,ESE,119,2.0,4.0,52,0.00,,SKC,0.00,VWS V14.01,2013-05-06 19:30:00,
2013-05-06 12:35:00,69.1,50.8,29.83,East,99,0.0,2.0,52,0.00,,SKC,0.00,VWS V14.01,2013-05-06 19:35:00,
2013-05-06 12:45:00,72.0,52.4,29.83,ESE,119,4.0,4.0,50,0.00,,SKC,0.00,VWS V14.01,2013-05-06 19:45:00,
2013-05-06 12:50:00,72.3,53.2,29.83,SSE,161,3.0,4.0,51,0.00,,SKC,0.00,VWS V14.01,2013-05-06 19:50:00,
2013-05-06 12:55:00,72.1,53.0,29.83,West,276,3.0,5.0,51,0.00,,SKC,0.00,VWS V14.01,2013-05-06 19:55:00,
2013-05-06 13:00:00,72.1,52.5,29.83,SW,223,1.0,7.0,50,0.00,,SKC,0.00,VWS V14.01,2013-05-06 20:00:00,
2013-05-06 13:05:00,71.7,52.6,29.83,SE,141,1.0,5.0,51,0.00,,SKC,0.00,VWS V14.01,2013-05-06 20:05:00,
2013-05-06 13:10:00,71.2,52.7,29.84,South,175,4.0,4.0,52,0.00,,SKC,0.00,VWS V14.01,2013-05-06 20:10:00,
2013-05-06 13:15:00,70.2,53.8,29.84,South,169,1.0,6.0,56,0.00,,SKC,0.00,VWS V14.01,2013-05-06 20:15:00,
2013-05-06 13:20:00,69.1,53.7,29.84,South,180,6.0,6.0,58,0.00,,SKC,0.00,VWS V14.01,2013-05-06 20:20:00,
2013-05-06 13:25:00,68.7,53.8,29.84,SSW,199,0.0,6.0,59,0.00,,SKC,0.00,VWS V14.01,2013-05-06 20:25:00,
2013-05-06 13:30:00,68.6,54.6,29.84,South,169,0.0,4.0,61,0.00,,SKC,0.00,VWS V14.01,2013-05-06 20:30:00,
2013-05-06 13:35:00,68.1,54.2,29.84,South,169,0.0,2.0,61,0.00,,SKC,0.00,VWS V14.01,2013-05-06 20:35:00,
2013-05-06 13:45:00,67.1,54.1,29.84,South,175,0.0,2.0,63,0.00,,SKC,0.00,VWS V14.01,2013-05-06 20:45:00,
2013-05-06 13:55:00,67.0,54.9,29.84,NNE,13,0.0,5.0,65,0.00,,SKC,0.00,VWS V14.01,2013-05-06 20:55:00,
2013-05-06 14:00:00,67.5,53.6,29.84,SW,227,0.0,2.0,61,0.00,,SKC,0.00,VWS V14.01,2013-05-06 21:00:00,
2013-05-06 14:10:00,68.6,52.8,29.84,NW,315,0.0,2.0,57,0.00,,SKC,0.00,VWS V14.01,2013-05-06 21:10:00,
2013-05-06 14:15:00,69.6,52.7,29.84,WNW,298,0.0,6.0,55,0.00,,SKC,0.00,VWS V14.01,2013-05-06 21:15:00,
2013-05-06 14:25:00,69.9,52.5,29.84,West,259,0.0,5.0,54,0.00,,SKC,0.00,VWS V14.01,2013-05-06 21:25:00,
2013-05-06 14:35:00,69.8,52.9,29.84,South,180,0.0,4.0,55,0.00,,SKC,0.00,VWS V14.01,2013-05-06 21:35:00,
2013-05-06 14:40:00,69.9,53.5,29.84,WSW,238,0.0,5.0,56,0.00,,SKC,0.00,VWS V14.01,2013-05-06 21:40:00,
2013-05-06 14:50:00,70.0,53.6,29.84,WSW,257,1.0,4.0,56,0.00,,SKC,0.00,VWS V14.01,2013-05-06 21:50:00,
2013-05-06 15:00:00,68.8,53.4,29.84,South,186,0.0,6.0,58,0.00,,SKC,0.00,VWS V14.01,2013-05-06 22:00:00,
2013-05-06 15:05:00,68.2,53.3,29.84,South,186,0.0,4.0,59,0.00,,SKC,0.00,VWS V14.01,2013-05-06 22:05:00,
2013-05-06 15:10:00,67.6,55.4,29.84,South,186,0.0,1.0,65,0.00,,SKC,0.00,VWS V14.01,2013-05-06 22:10:00,
2013-05-06 15:15:00,66.9,56.0,29.84,South,186,0.0,1.0,68,0.00,,SKC,0.00,VWS V14.01,2013-05-06 22:15:00,
2013-05-06 15:20:00,66.1,54.8,29.84,South,183,0.0,5.0,67,0.00,,SKC,0.00,VWS V14.01,2013-05-06 22:20:00,
2013-05-06 15:25:00,66.1,56.0,29.84,South,183,0.0,1.0,70,0.00,,SKC,0.00,VWS V14.01,2013-05-06 22:25:00,
2013-05-06 15:35:00,67.7,55.1,29.83,SW,221,0.0,5.0,64,0.00,,SKC,0.00,VWS V14.01,2013-05-06 22:35:00,
2013-05-06 15:40:00,69.1,55.1,29.83,South,173,2.0,4.0,61,0.00,,SKC,0.00,VWS V14.01,2013-05-06 22:40:00,
2013-05-06 15:50:00,69.8,53.4,29.83,South,169,0.0,6.0,56,0.00,,SKC,0.00,VWS V14.01,2013-05-06 22:50:00,
2013-05-06 15:55:00,70.2,54.8,29.83,South,173,0.0,5.0,58,0.00,,SKC,0.00,VWS V14.01,2013-05-06 22:55:00,
2013-05-06 16:05:00,70.4,54.0,29.82,South,173,1.0,4.0,56,0.00,,SKC,0.00,VWS V14.01,2013-05-06 23:05:00,
2013-05-06 16:15:00,69.7,54.3,29.82,WNW,286,0.0,6.0,58,0.00,,SKC,0.00,VWS V14.01,2013-05-06 23:15:00,
2013-05-06 16:20:00,69.5,54.1,29.83,WSW,242,1.0,6.0,58,0.00,,SKC,0.00,VWS V14.01,2013-05-06 23:20:00,
2013-05-06 16:30:00,68.8,53.4,29.83,South,172,4.0,5.0,58,0.00,,SKC,0.00,VWS V14.01,2013-05-06 23:30:00,
2013-05-06 16:40:00,69.4,53.0,29.82,South,173,0.0,8.0,56,0.00,,SKC,0.00,VWS V14.01,2013-05-06 23:40:00,
2013-05-06 16:45:00,69.6,53.2,29.82,West,260,0.0,6.0,56,0.00,,SKC,0.00,VWS V14.01,2013-05-06 23:45:00,
2013-05-06 16:55:00,70.8,53.8,29.82,WSW,246,0.0,5.0,55,0.00,,SKC,0.00,VWS V14.01,2013-05-06 23:55:00,
2013-05-06 17:00:00,71.5,54.0,29.82,South,190,0.0,4.0,54,0.00,,SKC,0.00,VWS V14.01,2013-05-07 00:00:00,
2013-05-06 17:10:00,71.2,53.7,29.82,South,172,3.0,7.0,54,0.00,,SKC,0.00,VWS V14.01,2013-05-07 00:10:00,
2013-05-06 17:15:00,70.3,52.9,29.83,South,176,1.0,7.0,54,0.00,,SKC,0.00,VWS V14.01,2013-05-07 00:15:00,
2013-05-06 17:25:00,68.9,52.6,29.83,SW,231,0.0,6.0,56,0.00,,SKC,0.00,VWS V14.01,2013-05-07 00:25:00,
2013-05-06 17:35:00,68.2,51.9,29.83,NW,318,2.0,4.0,56,0.00,,SKC,0.00,VWS V14.01,2013-05-07 00:35:00,
2013-05-06 17:45:00,68.0,51.7,29.84,West,261,6.0,8.0,56,0.00,,SKC,0.00,VWS V14.01,2013-05-07 00:45:00,
2013-05-06 17:55:00,67.6,51.8,29.84,NW,318,0.0,7.0,57,0.00,,SKC,0.00,VWS V14.01,2013-05-07 00:55:00,
2013-05-06 18:00:00,67.2,51.5,29.84,NW,309,4.0,6.0,57,0.00,,SKC,0.00,VWS V14.01,2013-05-07 01:00:00,
2013-05-06 18:05:00,67.2,51.5,29.84,West,279,0.0,5.0,57,0.00,,SKC,0.00,VWS V14.01,2013-05-07 01:05:00,
2013-05-06 18:15:00,66.7,51.5,29.84,NW,319,0.0,8.0,58,0.00,,SKC,0.00,VWS V14.01,2013-05-07 01:15:00,
2013-05-06 18:20:00,66.4,51.2,29.84,West,267,4.0,5.0,58,0.00,,SKC,0.00,VWS V14.01,2013-05-07 01:20:00,
2013-05-06 18:25:00,66.1,50.9,29.84,WNW,295,6.0,7.0,58,0.00,,SKC,0.00,VWS V14.01,2013-05-07 01:25:00,
2013-05-06 18:30:00,65.8,51.1,29.84,SSW,210,1.0,7.0,59,0.00,,SKC,0.00,VWS V14.01,2013-05-07 01:30:00,
2013-05-06 18:35:00,65.5,50.3,29.84,WSW,241,0.0,5.0,58,0.00,,SKC,0.00,VWS V14.01,2013-05-07 01:35:00,
2013-05-06 18:40:00,65.3,50.2,29.84,NW,309,1.0,8.0,58,0.00,,SKC,0.00,VWS V14.01,2013-05-07 01:40:00,
2013-05-06 18:45:00,65.1,50.4,29.84,NW,321,6.0,6.0,59,0.00,,SKC,0.00,VWS V14.01,2013-05-07 01:45:00,
2013-05-06 18:50:00,65.0,50.3,29.84,West,269,0.0,6.0,59,0.00,,SKC,0.00,VWS V14.01,2013-05-07 01:50:00,
2013-05-06 19:00:00,64.5,50.3,29.84,West,260,0.0,7.0,60,0.00,,SKC,0.00,VWS V14.01,2013-05-07 02:00:00,
2013-05-06 19:05:00,64.3,50.1,29.84,WNW,300,0.0,6.0,60,0.00,,SKC,0.00,VWS V14.01,2013-05-07 02:05:00,
2013-05-06 19:10:00,64.2,50.5,29.85,West,265,0.0,5.0,61,0.00,,SKC,0.00,VWS V14.01,2013-05-07 02:10:00,
2013-05-06 19:20:00,64.0,50.7,29.84,WSW,242,0.0,2.0,62,0.00,,SKC,0.00,VWS V14.01,2013-05-07 02:20:00,
2013-05-06 19:25:00,63.9,50.2,29.84,WSW,252,0.0,6.0,61,0.00,,SKC,0.00,VWS V14.01,2013-05-07 02:25:00,
2013-05-06 19:35:00,63.4,50.2,29.85,West,275,0.0,4.0,62,0.00,,SKC,0.00,VWS V14.01,2013-05-07 02:35:00,
2013-05-06 19:40:00,63.2,50.4,29.85,West,277,0.0,6.0,63,0.00,,SKC,0.00,VWS V14.01,2013-05-07 02:40:00,
2013-05-06 19:45:00,63.1,50.3,29.85,WSW,242,0.0,5.0,63,0.00,,SKC,0.00,VWS V14.01,2013-05-07 02:45:00,
2013-05-06 19:50:00,63.0,50.7,29.85,WSW,241,0.0,3.0,64,0.00,,SKC,0.00,VWS V14.01,2013-05-07 02:50:00,
2013-05-06 20:00:00,62.6,50.3,29.86,WSW,242,0.0,2.0,64,0.00,,SKC,0.00,VWS V14.01,2013-05-07 03:00:00,
2013-05-06 20:05:00,62.3,50.4,29.86,WSW,241,0.0,4.0,65,0.00,,SKC,0.00,VWS V14.01,2013-05-07 03:05:00,
2013-05-06 20:15:00,62.0,50.5,29.86,West,260,0.0,2.0,66,0.00,,SKC,0.00,VWS V14.01,2013-05-07 03:15:00,
2013-05-06 20:25:00,61.7,50.6,29.87,West,260,0.0,0.0,67,0.00,,SKC,0.00,VWS V14.01,2013-05-07 03:25:00,
2013-05-06 20:30:00,61.5,50.5,29.87,West,260,0.0,0.0,67,0.00,,SKC,0.00,VWS V14.01,2013-05-07 03:30:00,
2013-05-06 20:40:00,61.0,50.8,29.88,WNW,292,1.0,5.0,69,0.00,,SKC,0.00,VWS V14.01,2013-05-07 03:40:00,
2013-05-06 20:50:00,60.7,50.9,29.88,West,278,0.0,4.0,70,0.00,,SKC,0.00,VWS V14.01,2013-05-07 03:50:00,
2013-05-06 20:55:00,60.5,51.1,29.89,West,277,0.0,0.0,71,0.00,,SKC,0.00,VWS V14.01,2013-05-07 03:55:00,
2013-05-06 21:00:00,60.3,50.9,29.89,West,278,0.0,2.0,71,0.00,,SKC,0.00,VWS V14.01,2013-05-07 04:00:00,
2013-05-06 21:05:00,60.0,51.0,29.89,WNW,297,0.0,4.0,72,0.00,,SKC,0.00,VWS V14.01,2013-05-07 04:05:00,
2013-05-06 21:10:00,59.6,51.0,29.90,NW,307,0.0,1.0,73,0.00,,SKC,0.00,VWS V14.01,2013-05-07 04:10:00,
2013-05-06 21:15:00,59.3,51.0,29.90,NW,307,0.0,0.0,74,0.00,,SKC,0.00,VWS V14.01,2013-05-07 04:15:00,
2013-05-06 21:20:00,59.0,50.7,29.90,NW,308,1.0,2.0,74,0.00,,SKC,0.00,VWS V14.01,2013-05-07 04:20:00,
2013-05-06 21:25:00,59.0,51.1,29.91,NW,308,0.0,3.0,75,0.00,,SKC,0.00,VWS V14.01,2013-05-07 04:25:00,
2013-05-06 21:30:00,59.0,51.1,29.91,NW,312,0.0,3.0,75,0.00,,SKC,0.00,VWS V14.01,2013-05-07 04:30:00,
2013-05-06 21:35:00,58.9,51.4,29.91,NW,312,0.0,0.0,76,0.00,,SKC,0.00,VWS V14.01,2013-05-07 04:35:00,
2013-05-06 21:45:00,58.7,51.2,29.92,WNW,291,4.0,5.0,76,0.00,,SKC,0.00,VWS V14.01,2013-05-07 04:45:00,
2013-05-06 21:50:00,58.6,51.4,29.92,WNW,291,0.0,4.0,77,0.00,,SKC,0.00,VWS V14.01,2013-05-07 04:50:00,
2013-05-06 21:55:00,58.6,51.4,29.92,West,281,1.0,4.0,77,0.00,,SKC,0.00,VWS V14.01,2013-05-07 04:55:00,
2013-05-06 22:00:00,58.5,51.3,29.92,WNW,289,0.0,4.0,77,0.00,,SKC,0.00,VWS V14.01,2013-05-07 05:00:00,
2013-05-06 22:05:00,58.5,51.3,29.92,WNW,289,0.0,4.0,77,0.00,,SKC,0.00,VWS V14.01,2013-05-07 05:05:00,
2013-05-06 22:15:00,58.5,51.7,29.93,WNW,288,0.0,5.0,78,0.00,,SKC,0.00,VWS V14.01,2013-05-07 05:15:00,
2013-05-06 22:20:00,58.5,51.7,29.93,WNW,289,1.0,4.0,78,0.00,,SKC,0.00,VWS V14.01,2013-05-07 05:20:00,
2013-05-06 22:30:00,58.4,51.6,29.93,WNW,288,0.0,4.0,78,0.00,,SKC,0.00,VWS V14.01,2013-05-07 05:30:00,
2013-05-06 22:40:00,58.4,51.6,29.93,WNW,289,1.0,3.0,78,0.00,,SKC,0.00,VWS V14.01,2013-05-07 05:40:00,
2013-05-06 22:50:00,58.4,51.6,29.93,WNW,288,1.0,4.0,78,0.00,,SKC,0.00,VWS V14.01,2013-05-07 05:50:00,
2013-05-06 22:55:00,58.4,51.6,29.93,West,281,0.0,5.0,78,0.00,,SKC,0.00,VWS V14.01,2013-05-07 05:55:00,
2013-05-06 23:00:00,58.4,51.6,29.93,WSW,258,5.0,5.0,78,0.00,,SKC,0.00,VWS V14.01,2013-05-07 06:00:00,
2013-05-06 23:05:00,58.4,51.6,29.93,WNW,292,4.0,5.0,78,0.00,,SKC,0.00,VWS V14.01,2013-05-07 06:05:00,
2013-05-06 23:10:00,58.4,51.6,29.93,WNW,286,0.0,5.0,78,0.00,,SKC,0.00,VWS V14.01,2013-05-07 06:10:00,
2013-05-06 23:15:00,58.5,51.7,29.94,WNW,286,0.0,1.0,78,0.00,,SKC,0.00,VWS V14.01,2013-05-07 06:15:00,
2013-05-06 23:20:00,58.4,51.6,29.94,West,265,2.0,5.0,78,0.00,,SKC,0.00,VWS V14.01,2013-05-07 06:20:00,
2013-05-06 23:25:00,58.4,51.6,29.94,WNW,284,0.0,6.0,78,0.00,,SKC,0.00,VWS V14.01,2013-05-07 06:25:00,
2013-05-06 23:30:00,58.4,51.6,29.94,West,281,3.0,4.0,78,0.00,,SKC,0.00,VWS V14.01,2013-05-07 06:30:00,
2013-05-06 23:35:00,58.4,51.2,29.94,West,281,0.0,3.0,77,0.00,,SKC,0.00,VWS V14.01,2013-05-07 06:35:00,
2013-05-06 23:40:00,58.4,51.6,29.94,SSE,164,0.0,1.0,78,0.00,,SKC,0.00,VWS V14.01,2013-05-07 06:40:00,
2013-05-06 23:50:00,58.4,51.6,29.94,West,274,2.0,6.0,78,0.00,,SKC,0.00,VWS V14.01,2013-05-07 06:50:00,
2013-05-06 23:55:00,58.4,51.6,29.94,West,281,0.0,5.0,78,0.00,,SKC,0.00,VWS V14.01,2013-05-07 06:55:00,